Millers, Maryland
Current Conditions -  °F | °C
As of 9:20 AM on Sunday 23 Nov 2014 (Local Time) from KDMW Reporting Station
Clear Clear  
Wind Chill: 41°   Ceiling: Unl
Heat Index: 41°   Visibility: 10mi
Dew Point: 21°   Wind: 0mph
Humidity: 45%   Direction: NA
Pressure: 30.18"   Gusts: NA
Location:  39.6887°N, 76.8586°W
Report Text: KDMW 231420Z AUTO 00000KT 10SM CLR 05/M06 A3018 RMK AO2
Loading
Personal Weather Stations






























Interactive Weather Map New forecast layout! Learn more

10-Day Weather Forecast

Advertisements
Track Severe Weather on mobile